Airfield :







YOU CAN JOIN US ON...

 
LOGIN :

Register | Disclaimer

   EN    FR    IT 

 









Legend :    VFR   Marginal VFR   IFR   Intensive IFR   Very Intensive IFR
Visi :
Ceiling :
>= 8 km
>= 3000ft
5 to 8 km
1000 to 3000 ft
1500m to 5 km
500 to 1000 ft
800 to 1500m
200 to 500 ft
< 800m
< 200 ft
Symbols :   Thunderstorms  Fog  Heavy snow  Heavy precipitations  Wind > 20 kt






- Airport Elevation : 148 ft


KLWM - Lawrence Municipal

CURRENT METAR :
  • 150654Z AUTO 25014G21KT 10SM BKN026 BKN032 08/03 A2922 RMK AO2 RAB0555E05 SLP896 P0000 T00780033

EXPIRED METARs :
  • 150632Z AUTO 25013G25KT 10SM SCT024 BKN034 BKN047 08/03 A2920 RMK AO2 RAB0555E05 P0000 T00830033
  • 150554Z AUTO 24017G28KT 10SM OVC027 10/05 A2917 RMK AO2 PK WND 22031/0515 SLP879 60001 T01000050 10150 20100 53021
  • 150518Z AUTO 22019G31KT 10SM BKN029 11/05 A2915 RMK AO2 PK WND 22031/0515 T01060050
  • 150454Z AUTO 23015G24KT 10SM FEW024 SCT031 11/06 A2913 RMK AO2 PK WND 25030/0421 SLP865 T01060061 401500033

TAF N/A



MET'MAP, your aeronautical weather chart ! - Copyright ORBIFLY December 2007 - Disclaimer

ORBIFLY MET'MAP TEAM :

Programming & Development : Alexandra Zaïnal
Concept & original design : Baudouin d'Aumeries
Assistance for programming : Marc-Olivier Méhu
Technical & hardware support : Manuel Goepfert

Contact : metmap@orbifly.com




SOURCES & CREDITS :

   NOAA